createdAt,value
2023-01-30T00:01:18.683Z,99.90
2023-01-30T00:04:04.649Z,99.90
2023-01-30T00:06:50.105Z,99.90
2023-01-30T00:09:35.763Z,99.90
2023-01-30T00:12:21.016Z,99.90
2023-01-30T00:15:07.293Z,99.90
2023-01-30T00:17:52.655Z,99.90
2023-01-30T00:20:37.992Z,99.90
2023-01-30T00:23:23.489Z,99.90
2023-01-30T00:26:09.746Z,99.90
2023-01-30T00:28:56.751Z,99.90
2023-01-30T00:31:42.389Z,99.90
2023-01-30T00:34:28.715Z,99.90
2023-01-30T00:37:14.211Z,99.90
2023-01-30T00:39:59.716Z,99.90
2023-01-30T00:43:04.265Z,99.90
2023-01-30T00:46:10.067Z,99.90
2023-01-30T00:48:55.658Z,99.90
2023-01-30T00:51:41.192Z,99.90
2023-01-30T00:54:26.509Z,99.90
2023-01-30T00:57:12.247Z,99.90
2023-01-30T00:59:57.623Z,99.90
2023-01-30T01:02:43.139Z,99.90
2023-01-30T01:05:29.182Z,99.90
2023-01-30T01:08:14.900Z,99.90
2023-01-30T01:11:00.419Z,99.90
2023-01-30T01:13:45.893Z,99.90
2023-01-30T01:16:32.632Z,99.90
2023-01-30T01:19:18.008Z,99.90
2023-01-30T01:22:03.496Z,99.90
2023-01-30T01:24:48.985Z,99.90
2023-01-30T01:27:34.310Z,99.90
2023-01-30T01:30:19.913Z,99.90
2023-01-30T01:33:05.397Z,99.90
2023-01-30T01:35:50.906Z,99.90
2023-01-30T01:38:36.446Z,99.90
2023-01-30T01:41:21.911Z,99.90
2023-01-30T01:44:09.288Z,99.90
2023-01-30T01:46:59.404Z,99.90
2023-01-30T01:49:44.968Z,99.90
2023-01-30T01:52:30.633Z,99.90
2023-01-30T01:55:18.064Z,99.90
2023-01-30T01:58:11.259Z,99.90
2023-01-30T02:00:59.037Z,99.90
2023-01-30T02:03:49.635Z,99.90
2023-01-30T02:06:37.474Z,99.90
2023-01-30T02:09:22.913Z,99.90
2023-01-30T02:12:10.148Z,99.90
2023-01-30T02:14:57.798Z,99.90
2023-01-30T02:17:43.400Z,99.90
2023-01-30T02:21:06.490Z,99.90
2023-01-30T02:24:03.432Z,99.90
2023-01-30T02:27:10.320Z,99.90
2023-01-30T02:30:23.570Z,99.90
2023-01-30T02:33:28.381Z,99.90
2023-01-30T02:36:22.476Z,99.90
2023-01-30T02:39:30.354Z,99.90
2023-01-30T02:42:36.250Z,99.90
2023-01-30T02:45:40.641Z,99.90
2023-01-30T02:48:37.473Z,99.90
2023-01-30T02:51:28.505Z,99.90
2023-01-30T02:54:15.347Z,99.90
2023-01-30T02:57:01.032Z,99.90
2023-01-30T02:59:54.851Z,99.90
2023-01-30T03:02:52.031Z,99.90
2023-01-30T03:06:05.808Z,99.90
2023-01-30T03:09:14.473Z,99.90
2023-01-30T03:12:28.317Z,99.90
2023-01-30T03:15:40.554Z,99.90
2023-01-30T03:18:26.161Z,99.90
2023-01-30T03:21:12.447Z,99.90
2023-01-30T03:23:57.519Z,99.90
2023-01-30T03:26:52.950Z,99.90
2023-01-30T03:29:39.891Z,99.90
2023-01-30T03:32:25.105Z,99.90
2023-01-30T03:35:10.541Z,99.90
2023-01-30T03:37:56.154Z,99.90
2023-01-30T03:40:41.758Z,99.90
2023-01-30T03:43:28.035Z,99.90
2023-01-30T03:46:13.489Z,99.90
2023-01-30T03:48:58.805Z,99.90
2023-01-30T03:51:44.453Z,99.90
2023-01-30T03:54:29.888Z,99.90
2023-01-30T03:57:15.338Z,99.90
2023-01-30T04:00:01.484Z,99.90
2023-01-30T04:02:46.925Z,99.90
2023-01-30T04:05:34.795Z,99.90
2023-01-30T04:08:23.815Z,99.90
2023-01-30T04:11:09.164Z,99.90
2023-01-30T04:13:54.721Z,99.90
2023-01-30T04:16:40.837Z,99.90
2023-01-30T04:19:45.341Z,99.90
2023-01-30T04:22:31.806Z,99.90
2023-01-30T04:25:17.540Z,99.90
2023-01-30T04:28:03.079Z,99.90
2023-01-30T04:30:54.184Z,99.90
2023-01-30T04:33:58.952Z,99.90
2023-01-30T04:36:44.634Z,99.90
2023-01-30T04:39:31.245Z,99.90
2023-01-30T04:42:16.974Z,99.90
2023-01-30T04:45:16.441Z,99.90
2023-01-30T04:48:02.695Z,99.90
2023-01-30T04:50:50.827Z,99.90
2023-01-30T04:53:36.554Z,99.90
2023-01-30T04:56:22.001Z,99.90
2023-01-30T04:59:08.613Z,99.90
2023-01-30T05:02:01.290Z,99.90
2023-01-30T05:04:49.752Z,99.90
2023-01-30T05:07:35.540Z,99.90
2023-01-30T05:10:21.722Z,99.90
2023-01-30T05:13:08.043Z,99.90
2023-01-30T05:15:53.785Z,99.90
2023-01-30T05:18:39.630Z,99.90
2023-01-30T05:21:28.561Z,99.90
2023-01-30T05:24:14.216Z,99.90
2023-01-30T05:26:59.773Z,99.90
2023-01-30T05:29:45.302Z,99.90
2023-01-30T05:32:31.098Z,99.90
2023-01-30T05:35:17.140Z,99.90
2023-01-30T05:38:03.498Z,99.90
2023-01-30T05:41:01.555Z,99.90
2023-01-30T05:43:51.024Z,99.90
2023-01-30T05:46:36.771Z,99.90
2023-01-30T05:49:22.361Z,99.90
2023-01-30T05:52:07.656Z,99.90
2023-01-30T05:54:53.250Z,99.90
2023-01-30T05:57:38.861Z,99.90
2023-01-30T06:00:24.358Z,99.90
2023-01-30T06:03:09.865Z,99.90
2023-01-30T06:05:55.198Z,99.90
2023-01-30T06:08:41.118Z,99.90
2023-01-30T06:11:26.709Z,99.90
2023-01-30T06:14:12.349Z,99.90
2023-01-30T06:16:57.889Z,99.90
2023-01-30T06:19:43.229Z,99.90
2023-01-30T06:22:28.972Z,99.90
2023-01-30T06:25:14.361Z,99.90
2023-01-30T06:27:59.742Z,99.90
2023-01-30T06:30:45.422Z,99.90
2023-01-30T06:33:31.312Z,99.90
2023-01-30T06:36:16.751Z,99.90
2023-01-30T06:39:02.102Z,99.90
2023-01-30T06:41:47.835Z,99.70
2023-01-30T06:44:33.197Z,99.70
2023-01-30T06:47:18.871Z,99.90
2023-01-30T06:50:04.644Z,99.90
2023-01-30T06:52:51.590Z,99.90
2023-01-30T06:55:38.352Z,99.80
2023-01-30T06:58:23.829Z,99.90
2023-01-30T07:01:09.262Z,99.90
2023-01-30T07:03:54.915Z,99.90
2023-01-30T07:06:40.356Z,99.90
2023-01-30T07:09:25.853Z,99.90
2023-01-30T07:12:11.556Z,99.90
2023-01-30T07:14:57.074Z,99.80
2023-01-30T07:17:43.060Z,99.90
2023-01-30T07:20:30.197Z,99.70
2023-01-30T07:23:15.903Z,99.80
2023-01-30T07:26:04.215Z,99.70
2023-01-30T07:28:49.765Z,99.80
2023-01-30T07:31:35.121Z,99.60
2023-01-30T07:34:20.691Z,99.20
2023-01-30T07:37:06.005Z,99.20
2023-01-30T07:39:51.687Z,99.30
2023-01-30T07:42:37.033Z,99.20
2023-01-30T07:45:22.544Z,98.50
2023-01-30T07:48:09.897Z,98.70
2023-01-30T07:50:57.072Z,98.30
2023-01-30T07:53:42.539Z,98.40
2023-01-30T07:56:28.536Z,98.40
2023-01-30T07:59:13.959Z,98.40
2023-01-30T08:01:59.263Z,98.20
2023-01-30T08:04:44.958Z,98.20
2023-01-30T08:07:31.651Z,98.30
2023-01-30T08:10:17.614Z,97.90
2023-01-30T08:13:03.312Z,98.20
2023-01-30T08:15:48.855Z,98.10
2023-01-30T08:18:34.883Z,98.40
2023-01-30T08:21:23.635Z,98.30
2023-01-30T08:24:09.389Z,98.40
2023-01-30T08:26:54.907Z,98.50
2023-01-30T08:29:40.647Z,98.40
2023-01-30T08:32:25.927Z,99.00
2023-01-30T08:35:11.729Z,98.80
2023-01-30T08:37:56.994Z,98.60
2023-01-30T08:40:43.097Z,98.10
2023-01-30T08:43:28.380Z,98.00
2023-01-30T08:46:14.032Z,98.00
2023-01-30T08:48:59.668Z,97.70
2023-01-30T08:51:45.044Z,98.10
2023-01-30T08:54:32.418Z,97.70
2023-01-30T08:57:19.022Z,97.60
2023-01-30T09:00:05.255Z,98.00
2023-01-30T09:02:54.265Z,98.00
2023-01-30T09:05:39.587Z,97.90
2023-01-30T09:08:25.114Z,97.70
2023-01-30T09:11:12.119Z,97.30
2023-01-30T09:13:57.529Z,97.70
2023-01-30T09:16:42.998Z,97.70
2023-01-30T09:19:29.173Z,97.70
2023-01-30T09:22:14.402Z,97.80
2023-01-30T09:24:59.843Z,97.70
2023-01-30T09:27:48.607Z,97.90
2023-01-30T09:30:34.644Z,98.40
2023-01-30T09:33:20.434Z,97.50
2023-01-30T09:36:06.222Z,97.90
2023-01-30T09:38:51.732Z,97.50
2023-01-30T09:42:05.351Z,97.80
2023-01-30T09:45:21.986Z,97.60
2023-01-30T09:48:25.724Z,97.90
2023-01-30T09:51:27.793Z,97.70
2023-01-30T09:54:15.649Z,97.60
2023-01-30T09:57:21.947Z,97.90
2023-01-30T10:00:17.630Z,97.90
2023-01-30T10:03:20.492Z,98.30
2023-01-30T10:06:11.615Z,98.50
2023-01-30T10:09:11.259Z,97.90
2023-01-30T10:12:26.132Z,98.00
2023-01-30T10:15:30.655Z,97.80
2023-01-30T10:18:35.494Z,97.80
2023-01-30T10:21:36.950Z,97.80
2023-01-30T10:24:46.066Z,98.00
2023-01-30T10:27:33.415Z,97.50
2023-01-30T10:30:19.790Z,97.40
2023-01-30T10:33:45.244Z,98.00
2023-01-30T10:36:52.376Z,97.50
2023-01-30T10:40:02.454Z,96.80
2023-01-30T10:43:14.049Z,97.30
2023-01-30T10:46:29.711Z,97.60
2023-01-30T10:49:32.891Z,97.60
2023-01-30T10:52:44.416Z,97.30
2023-01-30T10:55:42.009Z,97.40
2023-01-30T10:58:53.115Z,96.90
2023-01-30T11:01:45.125Z,97.20
2023-01-30T11:04:55.365Z,97.20
2023-01-30T11:07:43.398Z,97.10
2023-01-30T11:10:28.724Z,96.90
2023-01-30T11:13:22.543Z,97.00
2023-01-30T11:16:10.196Z,96.80
2023-01-30T11:22:05.827Z,97.10
2023-01-30T11:25:20.816Z,97.00
2023-01-30T11:28:06.479Z,96.70
2023-01-30T11:30:58.820Z,96.80
2023-01-30T11:33:44.718Z,97.20
2023-01-30T11:36:35.833Z,96.60
2023-01-30T11:39:23.796Z,96.70
2023-01-30T11:42:10.696Z,96.60
2023-01-30T11:45:16.063Z,96.50
2023-01-30T11:48:07.805Z,96.70
2023-01-30T11:51:04.240Z,97.00
2023-01-30T11:53:56.925Z,96.50
2023-01-30T11:56:53.419Z,96.00
2023-01-30T11:59:57.138Z,96.30
2023-01-30T12:02:45.082Z,96.20
2023-01-30T12:05:40.025Z,96.70
2023-01-30T12:08:43.102Z,96.60
2023-01-30T12:11:44.672Z,96.60
2023-01-30T12:14:41.240Z,96.70
2023-01-30T12:17:39.446Z,96.60
2023-01-30T12:20:49.214Z,96.70
2023-01-30T12:23:51.740Z,97.00
2023-01-30T12:26:52.047Z,96.80
2023-01-30T12:30:00.387Z,97.00
2023-01-30T12:32:45.874Z,97.00
2023-01-30T12:35:53.852Z,97.20
2023-01-30T12:39:06.337Z,96.90
2023-01-30T12:42:19.525Z,97.00
2023-01-30T12:45:07.148Z,97.00
2023-01-30T12:48:10.925Z,96.90
2023-01-30T12:51:14.889Z,96.60
2023-01-30T12:54:12.314Z,96.40
2023-01-30T12:57:08.171Z,96.50
2023-01-30T13:00:11.165Z,96.90
2023-01-30T13:03:15.015Z,96.80
2023-01-30T13:06:31.435Z,96.60
2023-01-30T13:09:42.624Z,96.40
2023-01-30T13:12:45.686Z,96.70
2023-01-30T13:16:03.631Z,96.60
2023-01-30T13:18:55.622Z,96.50
2023-01-30T13:21:50.792Z,96.80
2023-01-30T13:24:50.462Z,97.10
2023-01-30T13:27:39.592Z,97.40
2023-01-30T13:30:27.729Z,97.60
2023-01-30T13:33:25.316Z,97.60
2023-01-30T13:36:22.597Z,97.30
2023-01-30T13:39:26.609Z,97.60
2023-01-30T13:42:24.761Z,97.80
2023-01-30T13:45:27.118Z,98.10
2023-01-30T13:48:39.773Z,98.70
2023-01-30T13:51:52.182Z,98.60
2023-01-30T13:54:59.526Z,98.50
2023-01-30T13:58:05.698Z,98.40
2023-01-30T14:00:55.437Z,98.20
2023-01-30T14:03:44.240Z,98.70
2023-01-30T14:06:37.089Z,98.80
2023-01-30T14:09:29.274Z,99.10
2023-01-30T14:12:19.791Z,99.20
2023-01-30T14:15:24.501Z,99.00
2023-01-30T14:18:23.678Z,99.00
2023-01-30T14:21:22.594Z,98.80
2023-01-30T14:24:24.895Z,98.60
2023-01-30T14:27:27.362Z,99.00
2023-01-30T14:30:31.251Z,99.00
2023-01-30T14:33:22.588Z,99.10
2023-01-30T14:36:30.861Z,99.00
2023-01-30T14:39:49.117Z,98.80
2023-01-30T14:42:34.493Z,98.80
2023-01-30T14:45:42.772Z,98.80
2023-01-30T14:48:39.544Z,98.50
2023-01-30T14:51:39.412Z,98.80
2023-01-30T14:54:41.086Z,99.10
2023-01-30T14:57:32.751Z,99.20
2023-01-30T15:00:20.873Z,99.30
2023-01-30T15:03:18.533Z,99.00
2023-01-30T15:06:06.784Z,99.10
2023-01-30T15:08:52.783Z,99.10
2023-01-30T15:11:38.234Z,99.20
2023-01-30T15:14:43.019Z,99.40
2023-01-30T15:18:06.990Z,99.90
2023-01-30T15:21:27.938Z,99.90
2023-01-30T15:24:35.472Z,99.90
2023-01-30T15:27:44.563Z,99.90
2023-01-30T15:30:59.021Z,99.90
2023-01-30T15:33:50.041Z,99.90
2023-01-30T15:36:36.516Z,99.90
2023-01-30T15:39:27.052Z,99.90
2023-01-30T15:42:16.234Z,99.90
2023-01-30T15:45:24.887Z,99.90
2023-01-30T15:48:41.150Z,99.90
2023-01-30T15:51:29.335Z,99.90
2023-01-30T15:54:20.048Z,99.90
2023-01-30T15:57:05.519Z,99.90
2023-01-30T15:59:54.280Z,99.90
2023-01-30T16:02:43.038Z,99.90
2023-01-30T16:05:29.676Z,99.90
2023-01-30T16:08:24.557Z,99.90
2023-01-30T16:11:10.540Z,99.90
2023-01-30T16:13:56.291Z,99.90
2023-01-30T16:16:56.159Z,99.90
2023-01-30T16:19:42.683Z,99.90
2023-01-30T16:22:33.643Z,99.90
2023-01-30T16:25:24.500Z,99.90
2023-01-30T16:28:09.898Z,99.90
2023-01-30T16:31:01.152Z,99.90
2023-01-30T16:33:52.921Z,99.90
2023-01-30T16:36:40.637Z,99.90
2023-01-30T16:39:37.646Z,99.90
2023-01-30T16:42:26.308Z,99.90
2023-01-30T16:45:19.496Z,99.90
2023-01-30T16:48:23.916Z,99.90
2023-01-30T16:51:21.504Z,99.90
2023-01-30T16:54:25.036Z,99.90
2023-01-30T16:57:28.566Z,99.90
2023-01-30T17:00:24.706Z,99.90
2023-01-30T17:03:24.633Z,99.90
2023-01-30T17:06:20.947Z,99.90
2023-01-30T17:09:38.313Z,99.90
2023-01-30T17:12:36.218Z,99.90
2023-01-30T17:15:21.930Z,99.90
2023-01-30T17:18:09.564Z,99.90
2023-01-30T17:20:54.856Z,99.90
2023-01-30T17:23:44.032Z,99.90
2023-01-30T17:26:30.526Z,99.90
2023-01-30T17:29:23.851Z,99.90
2023-01-30T17:32:15.806Z,99.90
2023-01-30T17:35:01.182Z,99.90
2023-01-30T17:37:59.594Z,99.90
2023-01-30T17:40:49.223Z,99.90
2023-01-30T17:43:34.486Z,99.90
2023-01-30T17:46:24.055Z,99.90
2023-01-30T17:49:27.988Z,99.90
2023-01-30T17:52:14.236Z,99.90
2023-01-30T17:54:59.791Z,99.90
2023-01-30T17:57:48.070Z,99.90
2023-01-30T18:00:33.627Z,99.90
2023-01-30T18:03:19.473Z,99.90
2023-01-30T18:06:06.131Z,99.90
2023-01-30T18:08:51.682Z,99.90
2023-01-30T18:11:37.637Z,99.90
2023-01-30T18:14:24.255Z,99.90
2023-01-30T18:17:10.773Z,99.90
2023-01-30T18:19:56.151Z,99.90
2023-01-30T18:22:41.858Z,99.90
2023-01-30T18:25:27.370Z,99.90
2023-01-30T18:28:13.070Z,99.90
2023-01-30T18:30:59.145Z,99.90
2023-01-30T18:33:45.457Z,99.90
2023-01-30T18:36:33.835Z,99.90
2023-01-30T18:39:19.413Z,99.90
2023-01-30T18:42:06.378Z,99.90
2023-01-30T18:44:51.739Z,99.90
2023-01-30T18:47:37.939Z,99.90
2023-01-30T18:50:23.731Z,99.90
2023-01-30T18:53:10.045Z,99.90
2023-01-30T18:55:55.351Z,99.90
2023-01-30T18:58:41.412Z,99.90
2023-01-30T19:01:29.315Z,99.90
2023-01-30T19:04:14.936Z,99.90
2023-01-30T19:07:00.470Z,99.90
2023-01-30T19:09:45.963Z,99.90
2023-01-30T19:12:50.191Z,99.90
2023-01-30T19:15:36.444Z,99.90
2023-01-30T19:18:25.539Z,99.90
2023-01-30T19:21:11.978Z,99.90
2023-01-30T19:23:57.869Z,99.90
2023-01-30T19:26:43.271Z,99.90
2023-01-30T19:29:28.890Z,99.90
2023-01-30T19:32:14.522Z,99.90
2023-01-30T19:34:59.914Z,99.90
2023-01-30T19:37:45.429Z,99.90
2023-01-30T19:40:30.909Z,99.90
2023-01-30T19:43:16.627Z,99.90
2023-01-30T19:46:02.428Z,99.90
2023-01-30T19:48:48.778Z,99.90
2023-01-30T19:51:35.056Z,99.90
2023-01-30T19:54:20.902Z,99.90
2023-01-30T19:57:06.668Z,99.90
2023-01-30T19:59:52.220Z,99.90
2023-01-30T20:02:38.224Z,99.90
2023-01-30T20:05:23.595Z,99.90
2023-01-30T20:08:19.120Z,99.90
2023-01-30T20:11:21.864Z,99.90
2023-01-30T20:14:08.819Z,99.90
2023-01-30T20:16:54.161Z,99.90
2023-01-30T20:19:39.761Z,99.90
2023-01-30T20:22:25.242Z,99.90
2023-01-30T20:25:10.827Z,99.90
2023-01-30T20:27:56.215Z,99.90
2023-01-30T20:30:41.662Z,99.90
2023-01-30T20:33:29.019Z,99.90
2023-01-30T20:36:18.748Z,99.90
2023-01-30T20:39:07.574Z,99.90
2023-01-30T20:41:53.380Z,99.90
2023-01-30T20:44:39.776Z,99.90
2023-01-30T20:47:25.392Z,99.90
2023-01-30T20:50:13.625Z,99.90
2023-01-30T20:52:59.324Z,99.90
2023-01-30T20:55:44.769Z,99.90
2023-01-30T20:58:30.547Z,99.90
2023-01-30T21:01:21.580Z,99.90
2023-01-30T21:04:10.331Z,99.90
2023-01-30T21:06:56.055Z,99.90
2023-01-30T21:09:41.565Z,99.90
2023-01-30T21:12:27.256Z,99.90
2023-01-30T21:15:12.693Z,99.90
2023-01-30T21:17:58.227Z,99.90
2023-01-30T21:20:49.708Z,99.90
2023-01-30T21:23:36.935Z,99.90
2023-01-30T21:26:25.369Z,99.90
2023-01-30T21:29:11.673Z,99.90
2023-01-30T21:31:58.683Z,99.90
2023-01-30T21:34:45.513Z,99.90
2023-01-30T21:37:49.393Z,99.90
2023-01-30T21:40:53.604Z,99.90
2023-01-30T21:43:38.950Z,99.90
2023-01-30T21:46:24.519Z,99.90
2023-01-30T21:49:10.302Z,99.90
2023-01-30T21:51:56.293Z,99.90
2023-01-30T21:54:41.383Z,99.90
2023-01-30T21:57:27.538Z,99.90
2023-01-30T22:00:13.559Z,99.90
2023-01-30T22:02:59.057Z,99.90
2023-01-30T22:05:45.440Z,99.90
2023-01-30T22:08:30.722Z,99.90
2023-01-30T22:11:20.827Z,99.90
2023-01-30T22:14:06.377Z,99.90
2023-01-30T22:16:52.021Z,99.90
2023-01-30T22:19:37.443Z,99.90
2023-01-30T22:22:25.207Z,99.90
2023-01-30T22:25:11.743Z,99.90
2023-01-30T22:27:59.667Z,99.90
2023-01-30T22:30:44.889Z,99.90
2023-01-30T22:33:30.922Z,99.90
2023-01-30T22:36:17.002Z,99.90
2023-01-30T22:39:03.909Z,99.90
2023-01-30T22:41:49.334Z,99.90
2023-01-30T22:44:34.926Z,99.90
2023-01-30T22:47:20.527Z,99.90
2023-01-30T22:50:06.649Z,99.90
2023-01-30T22:52:51.976Z,99.90
2023-01-30T22:55:38.553Z,99.90
2023-01-30T22:58:23.889Z,99.90
2023-01-30T23:01:21.638Z,99.90
2023-01-30T23:04:29.323Z,99.90
2023-01-30T23:07:16.683Z,99.90
2023-01-30T23:10:01.891Z,99.90
2023-01-30T23:13:06.134Z,99.90
2023-01-30T23:15:51.565Z,99.90
2023-01-30T23:18:55.282Z,99.90
2023-01-30T23:21:45.534Z,99.90
2023-01-30T23:24:31.177Z,99.90
2023-01-30T23:27:16.572Z,99.90
2023-01-30T23:30:02.143Z,99.90
2023-01-30T23:32:47.469Z,99.90
2023-01-30T23:35:34.695Z,99.90
2023-01-30T23:38:20.167Z,99.90
2023-01-30T23:41:10.299Z,99.90
2023-01-30T23:43:56.109Z,99.90
2023-01-30T23:46:42.708Z,99.90
2023-01-30T23:49:28.271Z,99.90
2023-01-30T23:52:15.534Z,99.90
2023-01-30T23:55:00.721Z,99.90
2023-01-30T23:57:46.067Z,99.90
